KGRK/GRK METAR and TAF weather

Enter ICAO airport designator
Station Type Date Time Source
KGRK METAR 2019/02/17 07:33 UTC NOAA

KGRK 170733Z AUTO 31004KT 2 1/2SM BR OVC004 10/09 A2970 RMK AO2 VIS 2 1/2V3 VIS 1 3/8 RWY33 SLP059


Station Type Date Time Source
KGRK Decoded METAR 2019/02/17 07:33 UTC NOAA

Fort Hood, Robert Gray AAF Ft Hood, TX, United States (KGRK) 31-04N 097-49W
Feb 17, 2019 - 02:33 AM EST / 2019.02.17 0733 UTC
Wind: from the NW (310 degrees) at 5 MPH (4 KT):0
Visibility: 2 1/2 mile(s):0
Sky conditions: overcast
Weather: mist
Temperature: 50 F (10 C)
Dew Point: 48 F (9 C)
Relative Humidity: 93%
Pressure (altimeter): 29.7 in. Hg (1005 hPa)
ob: KGRK 170733Z AUTO 31004KT 2 1/2SM BR OVC004 10/09 A2970 RMK AO2 VIS 2 1/2V3 VIS 1 3/8 RWY33 SLP059
cycle: 7

Station Type Date Time Source
KGRK TAF 2019/02/17 00:57 UTC NOAA

TAF KGRK 170050Z 1700/1806 15005KT 9999 OVC010 QNH2965INS
TEMPO 1705/1710 4800 BR OVC004
BECMG 1714/1715 30012G18KT 9999 SCT080 QNH2985INS TX17/1720Z TN08/1701Z


Example: see airport list